Time;durP1;ratioP1;P1;durP2;ratioP2;P2;SDS_P1;SDS_P2;PMS_P1;PMS_P2;Temp;Humidity;BMP_temperature;BMP_pressure;BME280_temperature;BME280_humidity;BME280_pressure;Samples;Min_cycle;Max_cycle;Signal;HPM_P1;HPM_P2
2022/10/07 00:00:49;;;;;;;9.23;4.10;;;;;;;8.34;100.00;101664.16;5107226;28;20043;-77
2022/10/07 00:03:17;;;;;;;12.50;4.53;;;;;;;8.53;100.00;101685.78;5104023;27;20364;-79
2022/10/07 00:05:44;;;;;;;14.00;4.18;;;;;;;8.46;100.00;101685.03;5106563;28;20048;-77
2022/10/07 00:08:11;;;;;;;14.55;4.10;;;;;;;8.41;100.00;101686.88;5102023;28;20407;-78
2022/10/07 00:10:42;;;;;;;10.15;3.90;;;;;;;8.35;100.00;101685.22;5107261;28;20044;-80
2022/10/07 00:13:10;;;;;;;;;;;;;;;8.31;100.00;101682.63;5105880;28;20047;-79
2022/10/07 00:15:38;;;;;;;11.75;4.30;;;;;;;8.21;100.00;101673.13;5106822;28;19963;-76
2022/10/07 00:18:04;;;;;;;10.98;3.90;;;;;;;8.23;100.00;101680.13;5107260;28;20043;-77
2022/10/07 00:20:38;;;;;;;10.90;4.13;;;;;;;8.20;100.00;101680.16;5100454;28;20052;-79
2022/10/07 00:23:06;;;;;;;9.35;3.65;;;;;;;8.27;100.00;101680.94;5102970;28;20055;-77
2022/10/07 00:25:36;;;;;;;12.43;4.38;;;;;;;8.26;100.00;101679.19;5104351;28;20073;-76
2022/10/07 00:28:04;;;;;;;7.30;3.75;;;;;;;8.18;100.00;101671.44;5100504;28;20051;-78
2022/10/07 00:30:30;;;;;;;9.15;3.88;;;;;;;8.16;100.00;101667.94;5103506;28;20040;-73
2022/10/07 00:32:57;;;;;;;11.95;4.00;;;;;;;8.24;100.00;101667.78;5105220;28;20184;-78
2022/10/07 00:35:24;;;;;;;13.15;4.38;;;;;;;8.23;100.00;101664.28;5104689;28;20051;-77
2022/10/07 00:37:50;;;;;;;8.70;3.92;;;;;;;8.24;100.00;101659.88;5106593;28;20142;-75
2022/10/07 00:40:17;;;;;;;10.00;4.53;;;;;;;8.23;100.00;101658.13;5101170;28;20096;-79
2022/10/07 00:42:44;;;;;;;9.15;3.90;;;;;;;8.19;100.00;101653.78;5108302;28;20062;-79
2022/10/07 00:45:15;;;;;;;11.18;3.70;;;;;;;8.21;100.00;101649.38;5110408;28;20123;-76
2022/10/07 00:47:48;;;;;;;9.13;3.70;;;;;;;8.23;100.00;101660.78;5108871;28;20043;-75
2022/10/07 00:50:22;;;;;;;14.63;4.28;;;;;;;8.18;100.00;101652.97;5104367;28;20039;-77
2022/10/07 00:52:55;;;;;;;11.15;3.88;;;;;;;8.19;100.00;101652.03;5104782;28;20426;-75
2022/10/07 00:55:24;;;;;;;10.27;4.68;;;;;;;8.00;100.00;101630.38;5105856;28;20044;-76
2022/10/07 00:57:54;;;;;;;8.98;3.80;;;;;;;7.95;100.00;101628.72;5104287;28;20048;-78
2022/10/07 01:00:22;;;;;;;15.70;4.50;;;;;;;8.00;100.00;101638.31;5107321;28;20632;-78
2022/10/07 01:02:50;;;;;;;11.40;3.67;;;;;;;7.93;100.00;101634.00;5103144;27;20135;-78
2022/10/07 01:05:18;;;;;;;9.48;4.05;;;;;;;7.94;100.00;101642.78;5111312;28;20055;-79
2022/10/07 01:07:47;;;;;;;12.30;4.05;;;;;;;7.81;100.00;101634.22;5103689;28;20397;-72
2022/10/07 01:10:18;;;;;;;10.02;4.43;;;;;;;7.82;100.00;101641.22;5106359;27;20439;-74
2022/10/07 01:13:16;;;;;;;14.65;4.65;;;;;;;7.75;100.00;101640.44;5110042;28;20078;-74
2022/10/07 01:15:55;;;;;;;13.77;4.63;;;;;;;7.70;100.00;101629.13;5101477;28;20040;-75
2022/10/07 01:18:35;;;;;;;10.95;4.45;;;;;;;7.70;100.00;101631.75;5104968;28;20043;-75
2022/10/07 01:21:20;;;;;;;13.23;4.63;;;;;;;7.55;100.00;101600.34;5112982;28;20039;-78
2022/10/07 01:24:16;;;;;;;12.07;4.20;;;;;;;7.53;100.00;101603.91;5102220;28;20044;-73
2022/10/07 01:27:02;;;;;;;14.60;4.75;;;;;;;7.60;100.00;101614.31;5063340;28;20491;-78
2022/10/07 01:29:42;;;;;;;9.35;4.15;;;;;;;7.44;100.00;101599.63;5108850;28;20051;-78
2022/10/07 01:32:14;;;;;;;13.98;4.43;;;;;;;7.57;100.00;101618.75;5102957;28;20050;-80
2022/10/07 01:34:43;;;;;;;11.25;4.40;;;;;;;7.40;100.00;101590.03;5110320;27;20047;-78
2022/10/07 01:37:14;;;;;;;12.93;4.10;;;;;;;7.34;100.00;101575.19;5106552;28;20141;-75
2022/10/07 01:39:54;;;;;;;10.07;4.03;;;;;;;7.47;100.00;101611.91;5104410;28;20059;-77
2022/10/07 01:42:21;;;;;;;9.85;4.07;;;;;;;7.29;100.00;101579.66;5110936;28;20052;-78
2022/10/07 01:44:51;;;;;;;13.95;4.63;;;;;;;7.39;100.00;101607.63;5109322;28;20053;-73
2022/10/07 01:47:18;;;;;;;10.47;4.40;;;;;;;7.24;100.00;101584.09;5105947;28;20577;-74
2022/10/07 01:49:44;;;;;;;9.75;3.95;;;;;;;7.35;100.00;101592.75;5106996;28;20489;-76
2022/10/07 01:52:26;;;;;;;12.15;4.50;;;;;;;7.30;100.00;101597.19;5106954;28;20039;-77
2022/10/07 01:55:27;;;;;;;13.68;3.97;;;;;;;7.25;100.00;101585.84;5106127;28;20411;-77
2022/10/07 01:58:15;;;;;;;8.23;4.07;;;;;;;7.23;100.00;101595.56;5083560;28;20124;-80
2022/10/07 02:00:50;;;;;;;10.50;3.70;;;;;;;7.20;100.00;101592.09;5107640;28;20044;-80
2022/10/07 02:03:52;;;;;;;8.43;4.10;;;;;;;7.19;100.00;101579.81;5107493;27;20055;-75
2022/10/07 02:06:42;;;;;;;9.88;4.40;;;;;;;7.16;100.00;101570.19;5100049;28;20043;-79
2022/10/07 02:09:40;;;;;;;9.53;4.10;;;;;;;7.20;100.00;101571.88;5108084;28;20051;-77
2022/10/07 02:12:50;;;;;;;9.60;4.30;;;;;;;7.21;100.00;101568.38;5108841;28;20051;-75
2022/10/07 02:15:23;;;;;;;12.70;3.95;;;;;;;7.20;100.00;101571.88;5108824;28;20062;-78
2022/10/07 02:17:57;;;;;;;9.18;4.25;;;;;;;7.20;100.00;101574.53;5106943;28;20062;-74
2022/10/07 02:20:30;;;;;;;10.23;4.43;;;;;;;7.17;100.00;101563.16;5102841;28;20048;-79
2022/10/07 02:23:01;;;;;;;10.75;4.15;;;;;;;7.09;100.00;101557.09;5102201;28;20072;-79
2022/10/07 02:25:34;;;;;;;12.65;4.38;;;;;;;7.14;100.00;101560.56;5106197;28;20047;-79
2022/10/07 02:28:05;;;;;;;11.73;3.85;;;;;;;6.92;100.00;101525.78;5105229;28;20062;-73
2022/10/07 02:30:35;;;;;;;10.10;4.65;;;;;;;7.08;100.00;101555.41;5104729;28;20043;-71
2022/10/07 02:33:05;;;;;;;7.90;4.07;;;;;;;6.89;100.00;101528.44;5105917;28;20052;-77
2022/10/07 02:35:42;;;;;;;8.32;4.45;;;;;;;7.03;100.00;101550.19;5107470;28;20080;-77
2022/10/07 02:38:12;;;;;;;15.30;4.82;;;;;;;7.03;100.00;101539.66;5101543;28;20055;-79
2022/10/07 02:40:57;;;;;;;12.95;4.60;;;;;;;7.06;100.00;101549.28;5105714;28;20052;-76
2022/10/07 02:43:55;;;;;;;12.55;4.50;;;;;;;7.12;100.00;101542.13;5101697;28;20039;-77
2022/10/07 02:46:25;;;;;;;11.15;4.60;;;;;;;7.13;100.00;101541.25;5101049;28;20083;-76
2022/10/07 02:48:57;;;;;;;10.40;4.45;;;;;;;7.09;100.00;101549.19;5105480;28;20059;-79
2022/10/07 02:51:39;;;;;;;9.38;4.35;;;;;;;6.84;100.00;101522.34;5103703;28;20108;-77
2022/10/07 02:54:06;;;;;;;10.32;5.05;;;;;;;6.92;100.00;101539.81;5105127;28;20055;-79
2022/10/07 02:56:36;;;;;;;10.57;4.10;;;;;;;7.02;100.00;101544.03;5101249;28;20139;-78
2022/10/07 02:59:07;;;;;;;15.60;4.72;;;;;;;6.95;100.00;101518.66;5103939;28;20513;-79
2022/10/07 03:01:40;;;;;;;10.43;4.07;;;;;;;7.02;100.00;101530.00;5109640;28;20051;-79
2022/10/07 03:04:06;;;;;;;8.48;4.63;;;;;;;6.88;100.00;101509.13;5108497;27;20070;-73
2022/10/07 03:06:34;;;;;;;11.77;4.35;;;;;;;6.89;100.00;101510.00;5113102;28;20126;-76
2022/10/07 03:09:02;;;;;;;11.68;4.78;;;;;;;6.84;100.00;101506.56;5089724;28;20506;-78
2022/10/07 03:11:29;;;;;;;8.93;3.70;;;;;;;6.98;100.00;101528.31;5106466;28;20411;-75
2022/10/07 03:13:57;;;;;;;10.35;4.78;;;;;;;6.91;100.00;101526.66;5107126;28;20130;-78
2022/10/07 03:16:23;;;;;;;11.75;4.72;;;;;;;6.88;100.00;101531.97;5109311;28;20062;-76
2022/10/07 03:18:50;;;;;;;10.07;3.83;;;;;;;6.89;100.00;101520.53;5109864;28;20062;-71
2022/10/07 03:21:17;;;;;;;7.95;4.13;;;;;;;6.75;100.00;101509.34;5115528;28;20049;-78
2022/10/07 03:23:43;;;;;;;7.68;4.32;;;;;;;6.78;100.00;101522.44;5118440;28;20044;-72
2022/10/07 03:26:10;;;;;;;16.35;4.82;;;;;;;6.90;100.00;101524.91;5119529;28;20047;-75
2022/10/07 03:28:36;;;;;;;8.88;4.38;;;;;;;6.92;100.00;101523.13;5115986;28;20154;-74
2022/10/07 03:31:10;;;;;;;7.53;3.72;;;;;;;6.97;100.00;101527.44;5116028;28;20036;-77
2022/10/07 03:33:37;;;;;;;8.55;4.50;;;;;;;6.96;100.00;101525.69;5105874;28;20047;-79
2022/10/07 03:36:07;;;;;;;9.25;4.30;;;;;;;6.90;100.00;101517.03;5108272;28;20044;-76
2022/10/07 03:38:34;;;;;;;13.70;4.80;;;;;;;6.88;100.00;101521.44;5110866;27;20044;-79
2022/10/07 03:41:03;;;;;;;15.32;5.07;;;;;;;6.81;100.00;101511.88;5112567;28;20056;-77
2022/10/07 03:43:30;;;;;;;9.63;5.07;;;;;;;6.81;100.00;101520.63;5115344;28;20050;-78
2022/10/07 03:45:59;;;;;;;10.98;4.40;;;;;;;6.74;100.00;101497.06;5112250;28;20069;-75
2022/10/07 03:48:26;;;;;;;12.93;4.68;;;;;;;6.82;100.00;101501.31;5098178;28;20047;-75
2022/10/07 03:50:56;;;;;;;11.20;5.00;;;;;;;6.84;100.00;101498.66;5109803;28;20035;-78
2022/10/07 03:53:25;;;;;;;15.50;5.13;;;;;;;6.63;100.00;101468.22;5112772;27;20093;-79
2022/10/07 03:55:51;;;;;;;12.95;4.50;;;;;;;6.71;100.00;101486.56;5106090;28;20058;-77
2022/10/07 03:58:18;;;;;;;11.15;4.63;;;;;;;6.81;100.00;101494.31;5099894;28;20044;-78
2022/10/07 04:00:44;;;;;;;11.82;4.78;;;;;;;6.61;100.00;101468.25;5084823;28;20097;-74
2022/10/07 04:03:13;;;;;;;12.02;4.80;;;;;;;6.77;100.00;101502.28;5103626;28;20047;-74
2022/10/07 04:05:40;;;;;;;10.38;4.63;;;;;;;6.75;100.00;101494.41;5103350;28;20055;-78
2022/10/07 04:08:10;;;;;;;11.77;5.13;;;;;;;6.74;100.00;101497.06;5102767;28;20047;-75
2022/10/07 04:10:37;;;;;;;9.20;5.50;;;;;;;6.67;100.00;101481.34;5105710;28;20368;-74
2022/10/07 04:13:04;;;;;;;9.90;5.50;;;;;;;6.52;100.00;101462.25;5101156;28;20047;-75
2022/10/07 04:15:30;;;;;;;14.38;5.00;;;;;;;6.63;100.00;101486.66;5107549;28;20055;-77
2022/10/07 04:17:57;;;;;;;10.30;5.78;;;;;;;6.52;100.00;101472.78;5104644;28;20059;-74
2022/10/07 04:20:25;;;;;;;8.73;5.32;;;;;;;6.64;100.00;101497.16;5105635;28;20442;-77
2022/10/07 04:22:51;;;;;;;11.23;5.47;;;;;;;6.59;100.00;101477.09;5098661;28;20101;-75
2022/10/07 04:25:33;;;;;;;10.70;4.97;;;;;;;6.60;100.00;101482.34;5104422;28;20463;-75
2022/10/07 04:28:02;;;;;;;11.52;5.60;;;;;;;6.58;100.00;101486.75;5106564;28;20040;-77
2022/10/07 04:30:33;;;;;;;12.27;5.80;;;;;;;6.55;100.00;101481.50;5102252;28;20058;-75
2022/10/07 04:33:01;;;;;;;15.40;5.20;;;;;;;6.50;100.00;101472.78;5101696;28;20047;-75
2022/10/07 04:35:29;;;;;;;10.35;5.00;;;;;;;6.47;100.00;101480.72;5102759;28;20147;-77
2022/10/07 04:37:56;;;;;;;7.97;4.90;;;;;;;6.26;100.00;101452.94;5104603;28;20164;-75
2022/10/07 04:40:23;;;;;;;12.68;5.13;;;;;;;6.37;100.00;101465.97;5101965;28;20369;-78
2022/10/07 04:43:25;;;;;;;14.00;5.10;;;;;;;6.37;100.00;101467.72;5097745;28;20044;-78
2022/10/07 04:45:42;;;;;;;9.50;5.25;;;;;;;6.27;100.00;101445.94;5100513;28;20472;-79
2022/10/07 04:48:09;;;;;;;12.73;5.05;;;;;;;6.44;100.00;101480.78;5101598;28;20055;-74
2022/10/07 04:50:37;;;;;;;13.30;5.80;;;;;;;6.45;100.00;101479.91;5086607;28;20054;-78
2022/10/07 04:53:05;;;;;;;12.07;5.00;;;;;;;6.31;100.00;101459.00;5106948;28;20040;-78
2022/10/07 04:55:39;;;;;;;11.50;4.95;;;;;;;6.25;100.00;101452.97;5104709;28;20117;-78
2022/10/07 04:58:06;;;;;;;11.38;4.82;;;;;;;6.37;100.00;101476.47;5103891;28;20455;-74
2022/10/07 05:00:33;;;;;;;10.55;5.18;;;;;;;6.37;100.00;101473.84;5107617;28;20131;-78
2022/10/07 05:03:00;;;;;;;10.10;5.05;;;;;;;6.46;100.00;101473.72;5110347;28;20460;-77
2022/10/07 05:05:27;;;;;;;13.02;4.78;;;;;;;6.47;100.00;101472.81;5101696;28;20048;-80
2022/10/07 05:07:53;;;;;;;9.63;5.05;;;;;;;6.54;100.00;101471.88;5098594;28;20052;-75
2022/10/07 05:10:21;;;;;;;10.52;5.07;;;;;;;6.61;100.00;101462.97;5108181;28;20056;-76
2022/10/07 05:12:47;;;;;;;9.70;5.13;;;;;;;6.54;100.00;101436.78;5100163;28;20051;-77
2022/10/07 05:15:20;;;;;;;8.63;4.60;;;;;;;6.80;100.00;101460.09;5103010;28;20048;-75
2022/10/07 05:17:47;;;;;;;10.55;4.47;;;;;;;6.81;100.00;101446.03;5104639;28;20047;-73
2022/10/07 05:20:13;;;;;;;13.48;4.80;;;;;;;6.95;100.00;101455.47;5096712;28;20090;-73
2022/10/07 05:22:40;;;;;;;13.77;4.95;;;;;;;6.82;100.00;101437.25;5102997;28;20048;-77
2022/10/07 05:25:07;;;;;;;14.07;4.82;;;;;;;6.72;100.00;101422.50;5106435;28;20481;-71
2022/10/07 05:27:33;;;;;;;14.75;5.18;;;;;;;6.75;100.00;101428.59;5104492;28;20058;-76
2022/10/07 05:30:00;;;;;;;12.68;4.95;;;;;;;6.85;100.00;101447.75;5110408;28;20036;-76
2022/10/07 05:32:26;;;;;;;8.35;5.05;;;;;;;6.81;100.00;101446.91;5106767;28;20066;-74
2022/10/07 05:34:54;;;;;;;11.73;5.30;;;;;;;6.82;100.00;101451.28;5103526;28;20053;-78
2022/10/07 05:37:20;;;;;;;11.95;5.30;;;;;;;6.85;100.00;101437.22;5092327;28;20044;-74
2022/10/07 05:39:47;;;;;;;12.50;4.90;;;;;;;6.74;100.00;101421.59;5108266;28;20043;-76
2022/10/07 05:42:13;;;;;;;14.43;5.18;;;;;;;6.90;100.00;101440.66;5102557;28;20048;-72
2022/10/07 05:44:40;;;;;;;9.70;5.35;;;;;;;6.93;100.00;101430.94;5108744;28;20073;-77
2022/10/07 05:47:07;;;;;;;11.23;5.18;;;;;;;6.84;100.00;101406.50;5105000;28;20082;-78
2022/10/07 05:49:34;;;;;;;10.55;4.82;;;;;;;6.97;100.00;101424.72;5107037;28;20568;-74
2022/10/07 05:52:02;;;;;;;13.55;4.95;;;;;;;6.92;100.00;101423.94;5106235;28;20134;-75
2022/10/07 05:54:28;;;;;;;8.48;5.07;;;;;;;6.76;100.00;101398.75;5109021;28;20070;-77
2022/10/07 05:56:55;;;;;;;12.93;5.97;;;;;;;6.87;100.00;101417.88;5102051;28;20049;-73
2022/10/07 05:59:21;;;;;;;11.50;5.40;;;;;;;6.77;100.00;101394.34;5103336;28;20058;-74
2022/10/07 06:01:48;;;;;;;12.52;5.35;;;;;;;6.79;100.00;101406.56;5100053;28;20042;-76
2022/10/07 06:04:15;;;;;;;11.75;5.40;;;;;;;6.88;100.00;101416.13;5107569;28;20448;-78
2022/10/07 06:06:41;;;;;;;11.25;5.55;;;;;;;6.96;100.00;101420.34;5107901;28;20043;-76
2022/10/07 06:14:40;;;;;;;13.82;5.82;;;;;;;6.91;100.00;101422.22;5107767;28;20048;-76
2022/10/07 06:17:07;;;;;;;11.32;6.03;;;;;;;6.94;100.00;101426.53;5106186;28;20045;-72
2022/10/07 06:19:36;;;;;;;12.77;5.45;;;;;;;6.88;100.00;101421.38;5101992;28;20047;-74
2022/10/07 06:22:02;;;;;;;12.55;5.30;;;;;;;7.01;100.00;101409.75;5109755;28;20050;-76
2022/10/07 06:24:30;;;;;;;13.93;5.55;;;;;;;7.04;100.00;101407.06;5111134;27;20150;-74
2022/10/07 06:26:58;;;;;;;12.18;5.30;;;;;;;7.17;100.00;101411.25;5103654;28;20036;-77
2022/10/07 06:29:25;;;;;;;8.80;4.93;;;;;;;7.27;100.00;101419.84;5109536;28;20463;-75
2022/10/07 06:31:51;;;;;;;11.70;5.00;;;;;;;7.30;100.00;101406.63;5108879;28;20079;-73
2022/10/07 06:34:18;;;;;;;13.10;5.35;;;;;;;7.30;100.00;101411.91;5110427;27;20506;-74
2022/10/07 06:36:44;;;;;;;10.10;4.57;;;;;;;7.46;100.00;101428.31;5106375;28;20054;-77
2022/10/07 06:39:11;;;;;;;13.55;4.72;;;;;;;7.51;100.00;101424.69;5107688;28;20036;-76
2022/10/07 06:41:37;;;;;;;11.23;4.93;;;;;;;7.59;100.00;101424.53;5105413;28;20146;-78
2022/10/07 06:44:04;;;;;;;10.85;4.75;;;;;;;7.40;100.00;101385.34;5109701;28;20135;-76
2022/10/07 06:46:30;;;;;;;11.48;5.32;;;;;;;7.64;100.00;101415.66;5101309;28;20492;-75
2022/10/07 06:48:58;;;;;;;12.57;5.15;;;;;;;7.64;100.00;101414.81;5102419;28;20096;-72
2022/10/07 06:51:25;;;;;;;10.43;4.93;;;;;;;7.49;100.00;101391.38;5108745;28;20051;-76
2022/10/07 06:53:55;;;;;;;14.30;4.85;;;;;;;7.61;100.00;101415.72;5107093;28;20058;-72
2022/10/07 06:56:22;;;;;;;10.57;4.93;;;;;;;7.53;100.00;101395.69;5104305;28;20051;-75
2022/10/07 06:58:48;;;;;;;10.10;4.75;;;;;;;7.63;100.00;101402.50;5101774;28;20564;-76
2022/10/07 07:01:15;;;;;;;8.52;5.15;;;;;;;7.70;100.00;101405.03;5107149;28;20036;-76
2022/10/07 07:03:42;;;;;;;11.45;5.78;;;;;;;7.93;100.00;101417.75;5102094;27;20280;-76
2022/10/07 07:06:09;;;;;;;16.88;6.43;;;;;;;8.06;100.00;101429.78;5099810;28;20353;-75
2022/10/07 07:08:37;;;;;;;13.18;5.03;;;;;;;8.27;100.00;101439.03;5085663;28;20040;-75
2022/10/07 07:11:34;;;;;;;9.77;4.70;;;;;;;8.37;100.00;101429.16;5100582;28;20253;-75
2022/10/07 07:13:53;;;;;;;9.68;5.00;;;;;;;8.33;100.00;101409.91;5104425;28;20056;-76
2022/10/07 07:16:21;;;;;;;10.45;4.63;;;;;;;8.52;100.00;101423.56;5102408;28;20383;-75
2022/10/07 07:18:52;;;;;;;10.02;5.47;;;;;;;8.62;100.00;101419.84;5105642;28;20055;-74
2022/10/07 07:21:20;;;;;;;11.02;4.85;;;;;;;8.61;100.00;101391.69;5101958;28;20052;-74
2022/10/07 07:23:47;;;;;;;12.60;5.55;;;;;;;9.00;100.00;101410.13;5105226;28;20127;-77
2022/10/07 07:26:13;;;;;;;12.15;4.57;;;;;;;9.29;100.00;101406.75;5103378;28;20039;-72
2022/10/07 07:28:40;;;;;;;9.77;4.43;;;;;;;9.47;99.71;101399.22;5112583;28;20055;-78
2022/10/07 07:31:09;;;;;;;8.43;3.97;;;;;;;9.78;97.63;101411.59;5110405;28;20043;-71
2022/10/07 07:33:37;;;;;;;10.07;4.55;;;;;;;9.99;95.31;101405.72;5113606;27;20142;-76
2022/10/07 07:36:17;;;;;;;12.93;4.50;;;;;;;10.26;94.12;101403.22;5118011;28;20182;-74
2022/10/07 07:38:56;;;;;;;9.73;4.15;;;;;;;10.36;91.93;101400.25;5105272;28;20123;-83
2022/10/07 07:41:29;;;;;;;8.07;3.97;;;;;;;10.32;92.34;101413.63;5097172;28;20066;-83
2022/10/07 07:43:59;;;;;;;12.98;5.20;;;;;;;10.35;92.07;101397.66;5108806;28;20079;-82
2022/10/07 07:46:31;;;;;;;10.32;4.75;;;;;;;10.48;91.91;101396.38;5110594;28;20107;-73
2022/10/07 07:48:57;;;;;;;10.20;4.10;;;;;;;10.50;90.10;101387.47;5115201;28;20225;-75
2022/10/07 07:51:24;;;;;;;9.38;3.80;;;;;;;10.49;90.98;101380.44;5111149;27;20411;-75
2022/10/07 07:53:51;;;;;;;8.88;4.03;;;;;;;10.80;90.12;101403.31;5117979;28;20154;-71
2022/10/07 07:56:19;;;;;;;12.23;4.22;;;;;;;10.81;nan;101374.13;5111088;28;20098;-73
2022/10/07 07:58:46;;;;;;;12.52;3.92;;;;;;;11.01;88.15;101392.03;5101131;28;20051;-72
2022/10/07 08:01:14;;;;;;;8.52;3.90;;;;;;;11.03;87.88;101392.81;5099570;28;20063;-77
2022/10/07 08:03:43;;;;;;;6.57;3.58;;;;;;;10.97;86.09;101387.75;5099865;28;20058;-82
2022/10/07 08:06:12;;;;;;;9.85;4.47;;;;;;;10.86;87.31;101369.53;5101298;28;20039;-79
2022/10/07 08:08:41;;;;;;;8.98;4.13;;;;;;;11.11;86.60;101389.94;5082345;28;20071;-73
2022/10/07 08:11:16;;;;;;;10.00;3.80;;;;;;;11.25;86.16;101382.38;5103638;28;20130;-83
2022/10/07 08:13:44;;;;;;;9.77;3.60;;;;;;;11.47;85.51;101382.50;5100779;28;20500;-79
2022/10/07 08:16:13;;;;;;;9.57;4.05;;;;;;;11.60;84.72;101347.53;5102897;28;20035;-83
2022/10/07 08:18:42;;;;;;;10.48;4.05;;;;;;;11.89;81.83;101380.13;5093415;28;20047;-82
2022/10/07 08:21:09;;;;;;;12.20;4.32;;;;;;;11.68;81.66;101355.19;5104599;28;20071;-84
2022/10/07 08:23:37;;;;;;;9.10;4.07;;;;;;;11.64;82.63;101371.31;5104707;28;20066;-75
2022/10/07 08:26:06;;;;;;;8.45;3.60;;;;;;;11.52;82.82;101370.81;5103544;28;20446;-81
2022/10/07 08:28:33;;;;;;;8.88;4.03;;;;;;;11.43;83.35;101368.50;5101367;28;20100;-82
2022/10/07 08:31:10;;;;;;;7.95;3.70;;;;;;;11.32;84.46;101368.00;5092441;28;20460;-79
2022/10/07 08:33:39;;;;;;;9.10;3.67;;;;;;;11.33;85.98;101368.88;5097614;28;20040;-82
2022/10/07 08:36:10;;;;;;;10.05;3.75;;;;;;;11.28;86.37;101347.81;5101207;28;20056;-79
2022/10/07 08:38:37;;;;;;;;;;;;;;;11.49;85.11;101364.75;5104059;28;20412;-75
2022/10/07 08:41:33;;;;;;;7.72;3.78;;;;;;;11.55;84.84;101362.75;5100148;28;19920;-79
2022/10/07 08:44:12;;;;;;;8.05;3.80;;;;;;;11.50;84.83;101337.28;5109015;28;20067;-70
2022/10/07 08:47:14;;;;;;;8.38;3.58;;;;;;;11.71;84.74;101357.75;5106953;28;20048;-78
2022/10/07 08:49:57;;;;;;;11.18;4.13;;;;;;;11.70;84.55;101339.22;5099292;28;20510;-78
2022/10/07 08:52:48;;;;;;;11.55;4.63;;;;;;;11.94;83.94;101354.31;5109546;28;20146;-81
2022/10/07 08:55:25;;;;;;;9.20;4.00;;;;;;;12.04;83.83;101353.03;5107838;28;20599;-81
2022/10/07 08:58:21;;;;;;;8.98;3.85;;;;;;;12.19;83.36;101349.78;5102041;28;20157;-74
2022/10/07 09:01:03;;;;;;;7.10;3.80;;;;;;;12.30;81.90;101350.22;5113609;28;20079;-83
2022/10/07 09:03:50;;;;;;;7.53;3.60;;;;;;;12.43;81.69;101342.66;5117551;28;20059;-79
2022/10/07 09:06:27;;;;;;;7.40;4.00;;;;;;;12.54;81.77;101329.81;5104927;27;20146;-82
2022/10/07 09:09:01;;;;;;;7.47;4.00;;;;;;;12.75;82.46;101333.38;5102443;28;20055;-82
2022/10/07 09:11:29;;;;;;;7.38;3.50;;;;;;;12.87;80.28;101330.22;5100839;28;20051;-74
2022/10/07 09:14:02;;;;;;;10.48;4.15;;;;;;;12.91;79.36;101310.53;5098943;27;20051;-77
2022/10/07 09:16:39;;;;;;;11.27;4.03;;;;;;;13.15;77.73;101321.09;5101160;27;20052;-80
2022/10/07 09:19:27;;;;;;;8.73;3.80;;;;;;;13.13;77.83;101299.88;5109866;27;20054;-76
2022/10/07 09:22:04;;;;;;;8.85;4.30;;;;;;;13.38;77.58;101312.97;5103475;28;20077;-82
2022/10/07 09:24:33;;;;;;;9.32;3.72;;;;;;;13.42;75.57;101311.91;5106469;28;20134;-73
2022/10/07 09:27:04;;;;;;;9.52;3.92;;;;;;;13.36;76.06;101287.41;5096099;28;20051;-76
2022/10/07 09:29:30;;;;;;;12.15;3.92;;;;;;;13.54;77.77;101306.03;5106691;28;20086;-80
2022/10/07 09:31:57;;;;;;;10.73;4.22;;;;;;;13.60;76.90;101300.47;5104489;28;20054;-76
2022/10/07 09:34:26;;;;;;;9.48;4.13;;;;;;;13.41;76.41;101272.94;5102082;28;20415;-79
2022/10/07 09:37:21;;;;;;;8.05;3.38;;;;;;;13.50;76.57;101295.63;5107078;27;20086;-83
2022/10/07 09:39:50;;;;;;;10.43;3.78;;;;;;;13.47;76.05;101280.66;5101752;28;20054;-77
2022/10/07 09:42:42;;;;;;;5.93;3.67;;;;;;;13.52;76.06;101276.00;5102959;27;20115;-75
2022/10/07 09:45:23;;;;;;;9.05;4.07;;;;;;;13.74;75.56;101288.31;5102185;28;20040;-75
2022/10/07 09:47:52;;;;;;;8.95;3.65;;;;;;;13.81;74.27;101292.44;5103118;28;20488;-79
2022/10/07 09:50:30;;;;;;;9.90;3.50;;;;;;;13.81;74.13;101273.81;5108843;27;20074;-78
2022/10/07 09:52:57;;;;;;;9.98;3.78;;;;;;;13.96;73.33;101273.09;5104424;28;20055;-71
2022/10/07 09:55:37;;;;;;;9.45;4.00;;;;;;;14.18;72.67;101287.09;5112485;27;20145;-78
2022/10/07 09:58:30;;;;;;;10.65;3.70;;;;;;;14.36;72.32;101286.22;5106045;28;20452;-70
2022/10/07 10:01:08;;;;;;;8.23;3.33;;;;;;;14.27;71.86;101262.69;5103027;28;20111;-74
2022/10/07 10:03:36;;;;;;;7.95;3.33;;;;;;;14.47;72.31;101279.56;5107255;28;20050;-73
2022/10/07 10:06:07;;;;;;;6.53;3.38;;;;;;;14.54;71.03;101262.31;5095748;28;20071;-77
2022/10/07 10:08:37;;;;;;;9.70;3.63;;;;;;;14.90;70.27;101279.13;5098580;28;20056;-79
2022/10/07 10:11:05;;;;;;;12.83;3.53;;;;;;;15.03;68.64;101282.03;5097193;28;20126;-80
2022/10/07 10:13:39;;;;;;;9.68;3.83;;;;;;;15.15;66.41;101275.19;5097630;28;20469;-76
2022/10/07 10:16:36;;;;;;;9.07;3.55;;;;;;;15.28;66.74;101271.78;5096532;28;20050;-81
2022/10/07 10:19:20;;;;;;;7.70;3.90;;;;;;;15.34;64.61;101267.94;5094696;28;20071;-77
2022/10/07 10:21:55;;;;;;;11.52;4.07;;;;;;;15.29;64.16;101238.84;5101509;28;20477;-77
2022/10/07 10:27:26;;;;;;;9.77;4.30;;;;;;;15.46;63.15;101221.91;5102126;28;20120;-81
2022/10/07 10:29:59;;;;;;;10.65;4.38;;;;;;;15.52;62.85;101237.63;5101277;28;20048;-79
2022/10/07 10:32:38;;;;;;;11.05;4.38;;;;;;;15.54;63.00;101249.06;5107413;28;20118;-79
2022/10/07 10:35:16;;;;;;;8.30;4.03;;;;;;;15.57;63.32;101245.41;5104581;28;20062;-77
2022/10/07 10:37:50;;;;;;;11.52;4.43;;;;;;;15.50;62.62;101228.81;5103654;28;20052;-73
2022/10/07 10:40:39;;;;;;;8.90;4.28;;;;;;;15.55;63.98;101225.91;5102944;28;20070;-79
2022/10/07 10:43:12;;;;;;;8.68;3.60;;;;;;;15.77;62.76;101216.66;5099655;28;20055;-82
2022/10/07 10:45:57;;;;;;;16.58;4.43;;;;;;;16.04;59.97;101219.63;5107822;28;20054;-82
2022/10/07 10:48:29;;;;;;;9.02;3.80;;;;;;;16.15;61.32;101213.66;5103848;28;20134;-82
2022/10/07 10:51:27;;;;;;;12.65;4.88;;;;;;;16.30;59.68;101203.88;5106691;28;20052;-77
2022/10/07 10:54:16;;;;;;;10.57;4.07;;;;;;;16.59;59.50;101205.72;5102797;28;20052;-75
2022/10/07 10:56:50;;;;;;;10.63;3.83;;;;;;;16.66;58.45;101184.88;5091930;28;20467;-79
2022/10/07 10:59:54;;;;;;;11.88;4.28;;;;;;;16.86;57.01;101179.16;5092757;28;20036;-76
2022/10/07 11:02:37;;;;;;;9.07;3.90;;;;;;;17.22;55.35;101193.91;5099811;28;20178;-80
2022/10/07 11:05:13;;;;;;;10.30;3.85;;;;;;;17.33;54.22;101194.09;5102813;28;20066;-82
2022/10/07 11:07:49;;;;;;;9.18;4.07;;;;;;;17.32;54.10;101168.28;5107064;28;20131;-77
2022/10/07 11:10:15;;;;;;;10.57;4.57;;;;;;;17.57;53.27;101181.00;5106951;28;20044;-82
2022/10/07 11:12:47;;;;;;;10.23;3.50;;;;;;;17.61;53.41;101167.34;5108371;28;20079;-80
2022/10/07 11:15:27;;;;;;;12.55;4.05;;;;;;;17.73;53.39;101171.06;5098865;28;20052;-71
2022/10/07 11:18:00;;;;;;;11.95;4.28;;;;;;;17.74;52.86;101154.03;5107645;28;20047;-81
2022/10/07 11:20:32;;;;;;;9.07;3.60;;;;;;;17.88;51.73;101162.91;5102883;28;20059;-81
2022/10/07 11:23:21;;;;;;;7.70;3.25;;;;;;;17.77;51.80;101135.94;5097647;28;20066;-77
2022/10/07 11:26:00;;;;;;;7.72;3.50;;;;;;;17.76;51.38;101130.69;5102880;28;20050;-81
2022/10/07 11:28:31;;;;;;;9.80;3.30;;;;;;;17.74;51.56;101136.16;5098721;28;20714;-80
2022/10/07 11:31:09;;;;;;;7.00;2.88;;;;;;;17.72;51.75;101122.00;5106719;28;20049;-75
2022/10/07 11:33:49;;;;;;;9.38;3.50;;;;;;;17.81;51.18;101128.56;5107535;28;20048;-75
2022/10/07 11:36:37;;;;;;;5.57;3.10;;;;;;;17.91;51.00;101123.47;5113518;28;20294;-80
2022/10/07 11:39:04;;;;;;;7.90;3.00;;;;;;;18.05;51.15;101135.00;5114955;28;20061;-74
2022/10/07 11:41:34;;;;;;;7.00;2.53;;;;;;;17.83;50.30;101132.00;5115655;28;20054;-72
2022/10/07 11:44:08;;;;;;;7.20;2.45;;;;;;;17.53;52.04;101103.53;5117451;28;20131;-80
2022/10/07 11:46:40;;;;;;;6.45;2.17;;;;;;;17.50;51.36;101118.94;5116274;28;20044;-72
2022/10/07 11:49:22;;;;;;;6.53;2.30;;;;;;;17.39;51.63;101116.09;5124712;28;20040;-73
2022/10/07 11:52:10;;;;;;;8.10;2.80;;;;;;;17.38;51.93;101109.88;5122181;28;20046;-83
2022/10/07 11:54:52;;;;;;;7.95;2.47;;;;;;;17.47;52.13;101103.09;5101871;28;20044;-75